createdAt,value
2023-03-21T00:01:36.348Z,50.75
2023-03-21T00:06:41.671Z,50.74
2023-03-21T00:11:45.288Z,50.27
2023-03-21T00:16:49.246Z,49.60
2023-03-21T00:22:09.761Z,49.66
2023-03-21T00:27:42.607Z,50.99
2023-03-21T00:32:45.894Z,51.75
2023-03-21T00:37:54.023Z,53.39
2023-03-21T00:42:57.658Z,53.58
2023-03-21T00:48:01.427Z,53.62
2023-03-21T00:53:07.116Z,52.68
2023-03-21T00:58:11.007Z,54.89
2023-03-21T01:03:24.374Z,55.40
2023-03-21T01:08:38.218Z,55.81
2023-03-21T01:14:07.249Z,56.09
2023-03-21T01:19:24.976Z,55.78
2023-03-21T01:24:32.466Z,56.07
2023-03-21T01:29:37.432Z,55.53
2023-03-21T01:34:41.051Z,55.85
2023-03-21T01:39:46.416Z,56.19
2023-03-21T01:44:58.280Z,55.94
2023-03-21T01:50:04.731Z,57.33
2023-03-21T01:55:13.628Z,57.54
2023-03-21T02:00:18.103Z,57.92
2023-03-21T02:05:25.165Z,58.81
2023-03-21T02:10:32.822Z,59.37
2023-03-21T02:15:38.682Z,60.52
2023-03-21T02:21:10.279Z,64.27
2023-03-21T02:27:03.652Z,67.02
2023-03-21T02:32:36.587Z,66.88
2023-03-21T02:37:52.002Z,67.65
2023-03-21T02:43:09.356Z,68.44
2023-03-21T02:48:33.186Z,68.08
2023-03-21T02:53:53.299Z,68.96
2023-03-21T02:59:00.654Z,68.98
2023-03-21T03:04:04.446Z,69.47
2023-03-21T03:09:30.301Z,71.42
2023-03-21T03:15:00.225Z,71.40
2023-03-21T03:20:26.803Z,71.70
2023-03-21T03:25:42.925Z,72.27
2023-03-21T03:31:05.448Z,72.30
2023-03-21T03:36:28.443Z,71.77
2023-03-21T03:42:04.309Z,73.42
2023-03-21T03:47:11.821Z,73.10
2023-03-21T03:52:23.530Z,74.30
2023-03-21T03:57:30.310Z,74.36
2023-03-21T04:02:34.008Z,74.01
2023-03-21T04:07:37.668Z,73.93
2023-03-21T04:12:43.056Z,72.60
2023-03-21T04:17:46.917Z,71.85
2023-03-21T04:22:50.597Z,72.92
2023-03-21T04:27:55.968Z,73.78
2023-03-21T04:32:59.584Z,74.65
2023-03-21T04:38:03.293Z,74.41
2023-03-21T04:43:09.570Z,75.11
2023-03-21T04:53:39.410Z,72.94
2023-03-21T04:58:46.686Z,73.05
2023-03-21T05:03:50.374Z,74.59
2023-03-21T05:08:54.973Z,74.96
2023-03-21T05:14:00.716Z,75.39
2023-03-21T05:19:04.792Z,74.92
2023-03-21T05:24:09.477Z,75.83
2023-03-21T05:29:14.768Z,76.46
2023-03-21T05:34:18.430Z,75.82
2023-03-21T05:39:22.514Z,75.19
2023-03-21T05:44:27.844Z,75.76
2023-03-21T05:49:31.676Z,75.97
2023-03-21T05:54:35.345Z,75.81
2023-03-21T05:59:40.677Z,75.61
2023-03-21T06:04:44.408Z,75.87
2023-03-21T06:09:48.074Z,75.50
2023-03-21T06:14:53.367Z,75.21
2023-03-21T06:19:57.038Z,75.13
2023-03-21T06:25:00.872Z,75.17
2023-03-21T06:30:07.688Z,75.07
2023-03-21T06:35:11.485Z,74.68
2023-03-21T06:40:15.200Z,74.67
2023-03-21T06:45:21.236Z,77.12
2023-03-21T06:50:24.878Z,76.50
2023-03-21T06:55:28.689Z,76.75
2023-03-21T07:00:35.388Z,76.82
2023-03-21T07:05:39.445Z,77.29
2023-03-21T07:10:45.580Z,76.92
2023-03-21T07:15:51.048Z,76.73
2023-03-21T07:20:54.818Z,75.96
2023-03-21T07:25:58.539Z,76.57
2023-03-21T07:31:05.458Z,76.92
2023-03-21T07:36:12.822Z,77.24
2023-03-21T07:46:21.696Z,78.81
2023-03-21T07:51:25.423Z,78.63
2023-03-21T07:56:29.102Z,77.94
2023-03-21T08:01:34.424Z,77.11
2023-03-21T08:06:38.058Z,77.27
2023-03-21T08:11:41.934Z,76.62
2023-03-21T08:16:47.294Z,77.02
2023-03-21T08:21:51.107Z,77.50
2023-03-21T08:26:54.836Z,77.91
2023-03-21T08:32:00.133Z,77.76
2023-03-21T08:37:03.776Z,77.54
2023-03-21T08:42:07.442Z,76.96
2023-03-21T08:47:12.799Z,77.21
2023-03-21T08:52:16.625Z,77.60
2023-03-21T08:57:20.298Z,77.87
2023-03-21T09:02:25.626Z,77.69
2023-03-21T09:07:29.253Z,78.25
2023-03-21T09:12:33.172Z,78.43
2023-03-21T09:17:38.631Z,78.97
2023-03-21T09:22:42.908Z,78.40
2023-03-21T09:27:47.072Z,78.99
2023-03-21T09:32:52.380Z,79.63
2023-03-21T09:37:56.333Z,79.27
2023-03-21T09:43:08.730Z,79.42
2023-03-21T09:48:23.041Z,79.46
2023-03-21T09:53:33.378Z,79.73
2023-03-21T09:58:40.811Z,79.87
2023-03-21T10:03:46.145Z,80.31
2023-03-21T10:08:50.957Z,79.76
2023-03-21T10:13:59.556Z,79.57
2023-03-21T10:19:12.141Z,79.49
2023-03-21T10:24:20.642Z,80.84
2023-03-21T10:29:28.137Z,80.28
2023-03-21T10:34:40.559Z,81.11
2023-03-21T10:39:46.463Z,80.58
2023-03-21T10:44:51.746Z,81.04
2023-03-21T10:50:10.370Z,81.39
2023-03-21T10:55:22.788Z,80.78
2023-03-21T11:00:30.847Z,80.92
2023-03-21T11:05:41.431Z,81.18
2023-03-21T11:10:54.789Z,81.61
2023-03-21T11:16:06.253Z,81.34
2023-03-21T11:21:13.173Z,81.16
2023-03-21T11:26:21.950Z,81.40
2023-03-21T11:31:39.243Z,81.67
2023-03-21T11:36:44.602Z,80.68
2023-03-21T11:41:55.183Z,81.60
2023-03-21T11:46:59.043Z,81.29
2023-03-21T11:52:21.123Z,81.56
2023-03-21T11:57:31.546Z,81.91
2023-03-21T12:02:57.269Z,81.45
2023-03-21T12:08:08.711Z,80.72
2023-03-21T12:13:27.327Z,82.27
2023-03-21T12:18:50.297Z,81.64
2023-03-21T12:24:06.991Z,80.51
2023-03-21T12:29:40.082Z,80.27
2023-03-21T12:35:07.593Z,80.44
2023-03-21T12:40:22.864Z,81.29
2023-03-21T12:45:40.558Z,81.51
2023-03-21T12:50:46.309Z,82.39
2023-03-21T12:55:51.737Z,82.47
2023-03-21T13:00:58.522Z,81.91
2023-03-21T13:06:04.814Z,82.30
2023-03-21T13:11:14.695Z,83.37
2023-03-21T13:16:23.444Z,83.28
2023-03-21T13:21:42.755Z,85.20
2023-03-21T13:26:59.248Z,85.12
2023-03-21T13:32:10.997Z,86.42
2023-03-21T13:37:19.405Z,86.24
2023-03-21T13:42:29.972Z,88.02
2023-03-21T13:47:41.534Z,89.37
2023-03-21T13:53:08.156Z,88.64
2023-03-21T13:58:34.275Z,92.92
2023-03-21T14:03:38.455Z,91.22
2023-03-21T14:08:45.148Z,92.57
2023-03-21T14:13:54.015Z,94.26
2023-03-21T14:19:00.985Z,94.24
2023-03-21T14:24:07.366Z,95.30
2023-03-21T14:29:25.542Z,98.60
2023-03-21T14:34:32.084Z,95.02
2023-03-21T14:39:37.869Z,95.66
2023-03-21T14:44:55.390Z,96.80
2023-03-21T14:50:00.015Z,99.07
2023-03-21T14:55:12.476Z,99.81
2023-03-21T15:00:24.055Z,100.00
2023-03-21T15:05:31.966Z,100.00
2023-03-21T15:10:35.622Z,100.00
2023-03-21T15:15:42.195Z,100.00
2023-03-21T15:20:50.711Z,100.00
2023-03-21T15:25:54.738Z,100.00
2023-03-21T15:31:00.483Z,100.00
2023-03-21T15:36:10.695Z,100.00
2023-03-21T15:41:26.752Z,100.00
2023-03-21T15:46:44.539Z,100.00
2023-03-21T15:51:51.945Z,100.00
2023-03-21T15:56:57.482Z,100.00
2023-03-21T16:02:03.718Z,100.00
2023-03-21T16:07:16.234Z,100.00
2023-03-21T16:12:19.881Z,100.00
2023-03-21T16:17:34.092Z,100.00
2023-03-21T16:22:37.755Z,100.00
2023-03-21T16:27:41.624Z,100.00
2023-03-21T16:32:48.583Z,100.00
2023-03-21T16:37:52.259Z,100.00
2023-03-21T16:42:56.158Z,100.00
2023-03-21T16:48:01.834Z,100.00
2023-03-21T20:48:22.907Z,100.00
2023-03-21T20:53:26.558Z,100.00
2023-03-21T20:58:55.297Z,100.00
2023-03-21T21:03:55.942Z,100.00
2023-03-21T21:08:59.563Z,100.00
2023-03-21T21:14:03.200Z,100.00
2023-03-21T21:19:09.208Z,100.00
2023-03-21T21:24:14.534Z,100.00
2023-03-21T21:29:18.693Z,100.00
2023-03-21T21:34:24.008Z,100.00
2023-03-21T21:39:27.741Z,96.67
2023-03-21T21:44:31.401Z,96.91
2023-03-21T21:49:37.109Z,97.93
2023-03-21T21:54:40.886Z,98.86
2023-03-21T21:59:44.499Z,98.87
2023-03-21T22:04:49.777Z,100.00
2023-03-21T22:09:53.504Z,100.00
2023-03-21T22:14:57.146Z,100.00
2023-03-21T22:20:06.304Z,100.00
2023-03-21T22:25:12.505Z,100.00
2023-03-21T22:30:17.653Z,98.84
2023-03-21T22:35:23.088Z,99.74
2023-03-21T22:40:26.717Z,98.52
2023-03-21T22:45:30.350Z,98.07
2023-03-21T22:50:35.646Z,96.85
2023-03-21T22:55:40.009Z,95.82
2023-03-21T23:00:43.670Z,96.21
2023-03-21T23:05:48.948Z,96.41
2023-03-21T23:10:52.575Z,96.16
2023-03-21T23:15:56.233Z,95.12
2023-03-21T23:21:01.565Z,99.09
2023-03-21T23:26:05.274Z,100.00
2023-03-21T23:31:10.528Z,100.00
2023-03-21T23:36:17.406Z,99.96
2023-03-21T23:41:22.459Z,100.00
2023-03-21T23:46:26.138Z,100.00
2023-03-21T23:51:31.480Z,100.00
2023-03-21T23:56:35.120Z,100.00
